Flight Track Log - Related Links

Times and Time Zones

All times are in EDT time to prevent confusion due to time zone crossing. See the EJA826 flight status page for this flight to view local times or setup timezone preferences in your user account.

Time Position Orientation Groundspeed Altitude Reporting Facility
EDT Latitude Longitude Course Direction KTS MPH feet Rate Location/Type
Sun 08:40:44 AM 34.7408 -92.2375 84° East 242 278 1,000  Level Memphis Center
Sun 08:41:57 AM 34.7483 -92.1542 84° East 252 290 6,600 4,591 Climbing Memphis Center
Sun 08:42:56 AM 34.7433 -92.0681 94° East 283 326 11,100 3,882 Climbing Memphis Center
Sun 08:43:56 AM 34.7258 -91.9617 101° East 301 346 14,300 3,350 Climbing Memphis Center
Sun 08:44:56 AM 34.7314 -91.8531 86° East 314 361 17,800 3,150 Climbing Memphis Center
Sun 08:45:56 AM 34.7517 -91.7347 78° East 327 376 20,600 3,000 Climbing Memphis Center
Sun 08:46:56 AM 34.7717 -91.6061 79° East 350 403 23,800 2,900 Climbing Memphis Center
Sun 08:47:56 AM 34.7936 -91.4825 78° East 364 419 26,400 2,550 Climbing Memphis Center
Sun 08:48:56 AM 34.8114 -91.3614 80° East 364 419 28,900 1,300 Climbing Memphis Center
Sun 08:49:56 AM 34.8333 -91.2250 79° East 385 443 29,000 50 Climbing Memphis Center
Sun 08:50:56 AM 34.8531 -91.0808 80° East 419 482 29,000  Level Memphis Center
Sun 08:51:56 AM 34.8767 -90.9317 79° East 438 504 29,000  Level Memphis Center
Sun 08:52:56 AM 34.9003 -90.7825 79° East 448 516 29,000  Level Memphis Center
Sun 08:53:56 AM 34.9217 -90.6331 80° East 448 516 29,000  Level Memphis Center
Sun 08:54:56 AM 34.9425 -90.4811 80° East 448 516 29,000  Level Memphis Center
Sun 08:55:56 AM 34.9636 -90.3469 79° East 448 516 29,000  Level Memphis Center
Sun 08:56:56 AM 34.9864 -90.1975 79° East 448 516 29,000  Level Memphis Center
Sun 08:57:56 AM 35.0089 -90.0478 80° East 448 516 29,000  Level Memphis Center
Sun 08:58:56 AM 35.0461 -89.9006 73° East 448 516 29,000  Level Memphis Center
Sun 08:59:56 AM 35.0975 -89.7481 68° East 448 516 29,000  Level Memphis Center
Sun 09:00:56 AM 35.1447 -89.6081 68° East 448 516 29,000  Level Memphis Center
Sun 09:01:56 AM 35.1897 -89.4678 69° East 438 504 29,000  Level Memphis Center
Sun 09:02:56 AM 35.2347 -89.3325 68° East 432 497 29,000  Level Memphis Center
Sun 09:03:56 AM 35.2794 -89.1972 68° East 432 497 29,000  Level Memphis Center
Sun 09:04:56 AM 35.3258 -89.0592 68° East 427 491 29,000  Level Memphis Center
Sun 09:05:56 AM 35.3642 -88.9364 69° East 427 491 29,000  Level Memphis Center
Sun 09:06:56 AM 35.4064 -88.7981 69° East 432 497 29,000  Level Memphis Center
Sun 09:07:56 AM 35.4544 -88.6519 68° East 432 497 29,000  Level Memphis Center
Sun 09:08:56 AM 35.4983 -88.5183 68° East 426 490 29,000  Level Memphis Center
Sun 09:09:56 AM 35.5422 -88.3847 68° East 426 490 29,000 -750 Level Memphis Center
Sun 09:10:56 AM 35.5839 -88.2483 69° East 426 490 27,500 -1,800 Descending Memphis Center
Sun 09:11:56 AM 35.6256 -88.1247 67° East 408 470 25,400 -2,100 Descending Memphis Center
Sun 09:12:56 AM 35.6628 -88.0036 69° East 389 448 23,300 -2,050 Descending Memphis Center
Sun 09:13:56 AM 35.7003 -87.8850 69° East 372 428 21,300 -1,950 Descending Memphis Center
Sun 09:14:56 AM 35.7375 -87.7661 69° East 372 428 19,400 -1,900 Descending Memphis Center
Sun 09:15:56 AM 35.7725 -87.6500 70° East 372 428 17,500 -1,750 Descending Memphis Center
Sun 09:16:56 AM 35.8017 -87.5544 69° East 354 407 15,900 -1,700 Descending Memphis Center
Sun 09:17:56 AM 35.8408 -87.4481 66° East 341 392 14,100 -1,750 Descending Memphis Center
Sun 09:18:56 AM 35.8781 -87.3442 66° East 330 380 12,400 -1,700 Descending Memphis Center
Sun 09:19:56 AM 35.9089 -87.2431 69° East 325 374 10,700 -1,600 Descending Memphis Center
Sun 09:20:56 AM 35.9147 -87.1456 86° East 294 338 9,200 -1,650 Descending Memphis Center
Sun 09:21:56 AM 35.8978 -87.0539 103° East 277 319 7,400 -1,800 Descending Memphis Center
Sun 09:22:56 AM 35.8744 -86.9628 108° East 277 319 5,600 -1,650 Descending Memphis Center
Sun 09:23:56 AM 35.8533 -86.8764 107° East 277 319 4,100 -800 Descending Memphis Center
Sun 09:24:56 AM 35.8528 -86.7919 90° East 228 262 4,000 -500 Descending Memphis Center
Sun 09:25:56 AM 35.9167 -86.7611 21° North 189 217 3,100 -500 Descending Memphis Center
Sun 09:26:56 AM 35.9744 -86.7406 16° North 197 227 3,000 -250 Descending Memphis Center
Sun 09:27:56 AM 36.0114 -86.7233 21° North 172 198 2,600 -550 Descending Memphis Center
Sun 09:28:56 AM 36.0425 -86.7144 13° North 128 147 1,900 -650 Descending Memphis Center
Sun 09:29:56 AM 36.0714 -86.7003 22° Northeast 108 124 1,300 -600 Descending Memphis Center
Sun 09:30:56 AM 36.0961 -86.6914 16° North 108 124 700 -600 Descending Memphis Center
Sun 09:32:00 AM 36.1167 -86.6667 39° Northeast  Level FlightAware
Sun 09:39:00 AM 36.1245 -86.6782 39° Northeast  Level Estimated

Login

Don't have an account? Register now (free) for customized features, flight alerts, and more!